Time;durP1;ratioP1;P1;durP2;ratioP2;P2;SDS_P1;SDS_P2;PMS_P1;PMS_P2;Temp;Humidity;BMP_temperature;BMP_pressure;BME280_temperature;BME280_humidity;BME280_pressure;Samples;Min_cycle;Max_cycle;Signal;HPM_P1;HPM_P2
2022/05/08 00:05:18;;;;;;;14.68;13.25;;;;;;;;;;4997011;28;20274;-57
2022/05/08 00:11:14;;;;;;;16.73;15.13;;;;;;;;;;4986071;28;20031;-57
2022/05/08 00:16:40;;;;;;;16.30;14.70;;;;;;;;;;4951131;29;20126;-57
2022/05/08 00:19:27;;;;;;;17.83;16.02;;;;;;;;;;4959337;29;20039;-58
2022/05/08 00:22:23;;;;;;;19.17;14.55;;;;;;;;;;4955344;29;20054;-57
2022/05/08 00:25:17;;;;;;;16.98;15.02;;;;;;;;;;4945767;29;20040;-57
2022/05/08 00:30:42;;;;;;;15.88;14.27;;;;;;;;;;5090326;28;20090;-57
2022/05/08 00:33:16;;;;;;;16.10;14.50;;;;;;;;;;5090532;28;20458;-57
2022/05/08 00:36:06;;;;;;;;;;;;;;;;;;;;;
2022/05/08 00:42:04;;;;;;;16.73;15.13;;;;;;;;;;5070910;28;20032;-57
2022/05/08 00:44:46;;;;;;;18.23;16.42;;;;;;;;;;5090789;28;20046;-55
2022/05/08 00:59:30;;;;;;;17.98;15.68;;;;;;;;;;5090691;28;20032;-57
2022/05/08 01:02:25;;;;;;;17.65;15.07;;;;;;;;;;5071112;28;20454;-57
2022/05/08 01:05:12;;;;;;;15.35;13.85;;;;;;;;;;5090171;28;20021;-57
2022/05/08 01:14:17;;;;;;;16.13;14.52;;;;;;;;;;5087763;28;20043;-57
2022/05/08 01:16:52;;;;;;;14.48;13.13;;;;;;;;;;5031241;28;20021;-57
2022/05/08 01:19:33;;;;;;;15.63;14.02;;;;;;;;;;5046141;28;20117;-57
2022/05/08 01:28:25;;;;;;;12.50;11.30;;;;;;;;;;5069901;28;20025;-57
2022/05/08 01:31:23;;;;;;;12.88;11.57;;;;;;;;;;5088634;28;20036;-58
2022/05/08 01:34:16;;;;;;;14.57;12.60;;;;;;;;;;5068685;28;20451;-57
2022/05/08 01:36:45;;;;;;;14.18;12.43;;;;;;;;;;5088815;28;20452;-57
2022/05/08 01:39:57;;;;;;;15.67;14.00;;;;;;;;;;5089306;28;20028;-57
2022/05/08 01:42:33;;;;;;;14.90;12.80;;;;;;;;;;5087203;28;20033;-57
2022/05/08 01:45:02;;;;;;;13.10;11.88;;;;;;;;;;5087697;28;20029;-57
2022/05/08 01:50:18;;;;;;;15.45;13.95;;;;;;;;;;5089806;28;20059;-57
2022/05/08 01:53:14;;;;;;;15.93;14.25;;;;;;;;;;5088624;28;20036;-58
2022/05/08 01:56:22;;;;;;;15.25;13.77;;;;;;;;;;5046873;28;20037;-57
2022/05/08 01:59:01;;;;;;;15.65;13.70;;;;;;;;;;5051646;28;20439;-57
2022/05/08 02:01:29;;;;;;;17.73;16.02;;;;;;;;;;5090120;28;20028;-57
2022/05/08 02:04:21;;;;;;;17.52;15.75;;;;;;;;;;5089211;28;20090;-57
2022/05/08 02:07:03;;;;;;;15.30;13.85;;;;;;;;;;5047494;28;20103;-57
2022/05/08 02:12:31;;;;;;;15.75;14.05;;;;;;;;;;5089617;28;19915;-58
2022/05/08 02:15:29;;;;;;;15.93;14.32;;;;;;;;;;5072056;28;20096;-57
2022/05/08 02:24:07;;;;;;;18.65;16.55;;;;;;;;;;5072650;28;20040;-58
2022/05/08 02:26:58;;;;;;;17.55;15.85;;;;;;;;;;5085580;28;20037;-57
2022/05/08 02:29:24;;;;;;;16.02;14.20;;;;;;;;;;5062105;28;20037;-57
2022/05/08 02:32:26;;;;;;;17.55;15.73;;;;;;;;;;5089690;28;20095;-57
2022/05/08 02:38:06;;;;;;;16.48;14.93;;;;;;;;;;5007892;28;20110;-57
2022/05/08 02:40:42;;;;;;;17.48;15.77;;;;;;;;;;5071702;28;20041;-57
2022/05/08 02:49:20;;;;;;;18.63;16.73;;;;;;;;;;4984625;28;20100;-57
2022/05/08 02:52:05;;;;;;;17.23;15.50;;;;;;;;;;5044664;28;20049;-57
2022/05/08 02:54:53;;;;;;;19.38;17.38;;;;;;;;;;5069148;28;20044;-56
2022/05/08 03:01:06;;;;;;;17.13;15.40;;;;;;;;;;5062028;28;20063;-57
2022/05/08 03:07:00;;;;;;;18.20;16.50;;;;;;;;;;5024421;28;20060;-57
2022/05/08 03:12:47;;;;;;;19.60;15.07;;;;;;;;;;5027237;28;20161;-57
2022/05/08 03:15:57;;;;;;;18.40;16.53;;;;;;;;;;5019963;28;20033;-56
2022/05/08 03:18:44;;;;;;;20.77;17.55;;;;;;;;;;4948161;28;20024;-58
2022/05/08 03:21:35;;;;;;;17.30;15.38;;;;;;;;;;4984580;28;20031;-57
2022/05/08 03:24:23;;;;;;;20.27;17.10;;;;;;;;;;4956236;28;20039;-57
2022/05/08 03:29:56;;;;;;;19.67;16.48;;;;;;;;;;4977022;28;20038;-56
2022/05/08 03:32:41;;;;;;;;;;;;;;;;;;;;;
2022/05/08 03:35:23;;;;;;;19.80;17.80;;;;;;;;;;4987996;28;20485;-57
2022/05/08 03:41:24;;;;;;;19.42;17.52;;;;;;;;;;4919628;29;20040;-57
2022/05/08 03:47:49;;;;;;;21.05;18.92;;;;;;;;;;5053415;28;20064;-56
2022/05/08 03:53:38;;;;;;;22.23;19.30;;;;;;;;;;5064125;28;20079;-56
2022/05/08 03:56:30;;;;;;;20.75;17.60;;;;;;;;;;5087565;28;20036;-55
2022/05/08 03:59:02;;;;;;;19.42;17.55;;;;;;;;;;5052700;28;20036;-54
2022/05/08 04:01:42;;;;;;;19.60;17.60;;;;;;;;;;5088439;28;20401;-56
2022/05/08 04:04:18;;;;;;;19.98;17.98;;;;;;;;;;5083523;28;20032;-57
2022/05/08 04:13:06;;;;;;;21.08;18.88;;;;;;;;;;5088108;28;20115;-56
2022/05/08 04:18:44;;;;;;;20.70;18.48;;;;;;;;;;5088665;28;20037;-54
2022/05/08 04:21:22;;;;;;;20.77;18.67;;;;;;;;;;5082483;28;20028;-56
2022/05/08 04:30:03;;;;;;;25.50;18.83;;;;;;;;;;5048528;28;20052;-54
2022/05/08 04:32:49;;;;;;;21.45;18.98;;;;;;;;;;5077195;28;20108;-56
2022/05/08 04:35:28;;;;;;;20.75;18.65;;;;;;;;;;5091789;28;20021;-57
2022/05/08 04:38:13;;;;;;;21.13;17.85;;;;;;;;;;5091877;28;20025;-56
2022/05/08 04:40:58;;;;;;;21.13;19.02;;;;;;;;;;5091547;28;20024;-56
2022/05/08 04:43:39;;;;;;;18.73;16.80;;;;;;;;;;5091689;28;20043;-57
2022/05/08 04:46:33;;;;;;;20.52;18.52;;;;;;;;;;5074199;28;20036;-56
2022/05/08 04:49:27;;;;;;;21.02;19.05;;;;;;;;;;5090382;28;20053;-57
2022/05/08 04:51:59;;;;;;;21.80;19.52;;;;;;;;;;5086898;28;20127;-57
2022/05/08 04:54:32;;;;;;;21.17;19.08;;;;;;;;;;5072454;28;20029;-58
2022/05/08 04:57:31;;;;;;;;;;;;;;;;;;;;;
2022/05/08 05:00:09;;;;;;;21.25;18.95;;;;;;;;;;5076846;28;20067;-57
2022/05/08 05:06:23;;;;;;;20.48;18.38;;;;;;;;;;5091046;28;20036;-57
2022/05/08 05:08:55;;;;;;;20.45;18.33;;;;;;;;;;5081851;28;20080;-56
2022/05/08 05:11:52;;;;;;;22.05;19.88;;;;;;;;;;5090924;28;20035;-58
2022/05/08 05:14:24;;;;;;;22.88;20.58;;;;;;;;;;5090867;28;20107;-58
2022/05/08 05:17:00;;;;;;;20.98;18.95;;;;;;;;;;5091142;28;20074;-57
2022/05/08 05:23:10;;;;;;;22.63;20.45;;;;;;;;;;5067366;28;20393;-58
2022/05/08 05:26:27;;;;;;;;;;;;;;;;;;;;;
2022/05/08 05:32:16;;;;;;;23.63;21.08;;;;;;;;;;5015755;28;20110;-58
2022/05/08 05:35:39;;;;;;;22.75;20.35;;;;;;;;;;5090404;28;20051;-58
2022/05/08 05:41:24;;;;;;;22.45;20.05;;;;;;;;;;5000476;28;20038;-58
2022/05/08 05:44:03;;;;;;;27.40;19.13;;;;;;;;;;5086392;28;20041;-58
2022/05/08 05:52:45;;;;;;;21.77;18.50;;;;;;;;;;5087729;28;20043;-58
2022/05/08 05:55:23;;;;;;;21.67;19.45;;;;;;;;;;5088930;28;20033;-57
2022/05/08 06:01:43;;;;;;;25.13;21.10;;;;;;;;;;5067951;28;20029;-58
2022/05/08 06:04:41;;;;;;;23.38;21.00;;;;;;;;;;5070592;28;20118;-57
2022/05/08 06:07:42;;;;;;;25.50;21.33;;;;;;;;;;5071353;28;20102;-57
2022/05/08 06:13:40;;;;;;;23.65;19.80;;;;;;;;;;5035702;28;20040;-56
2022/05/08 06:16:25;;;;;;;21.45;19.00;;;;;;;;;;5087475;28;20043;-57
2022/05/08 06:19:16;;;;;;;21.42;19.33;;;;;;;;;;5089277;28;20121;-57
2022/05/08 06:22:07;;;;;;;25.42;21.42;;;;;;;;;;5089351;28;20463;-56
2022/05/08 06:24:49;;;;;;;22.25;19.92;;;;;;;;;;5071134;28;20374;-57
2022/05/08 06:27:47;;;;;;;20.42;18.30;;;;;;;;;;5070409;28;20033;-57
2022/05/08 06:30:38;;;;;;;23.15;18.35;;;;;;;;;;5047334;28;20080;-57
2022/05/08 06:33:29;;;;;;;21.30;18.65;;;;;;;;;;5046938;28;20050;-57
2022/05/08 06:39:00;;;;;;;21.60;19.38;;;;;;;;;;4995760;28;20033;-58
2022/05/08 06:44:46;;;;;;;21.35;19.25;;;;;;;;;;5068185;28;20033;-58
2022/05/08 06:47:38;;;;;;;19.77;17.67;;;;;;;;;;5088376;28;20024;-58
2022/05/08 06:50:33;;;;;;;22.27;19.33;;;;;;;;;;5087449;28;20052;-58
2022/05/08 06:53:20;;;;;;;19.30;17.45;;;;;;;;;;5087106;28;20035;-58
2022/05/08 06:56:00;;;;;;;18.38;16.50;;;;;;;;;;5088121;28;20036;-58
2022/05/08 07:01:51;;;;;;;19.08;17.15;;;;;;;;;;5066092;28;20119;-58
2022/05/08 07:10:30;;;;;;;15.60;13.32;;;;;;;;;;5063157;28;20019;-58
2022/05/08 07:13:03;;;;;;;18.02;16.10;;;;;;;;;;5065520;28;20033;-59
2022/05/08 07:15:57;;;;;;;18.67;15.32;;;;;;;;;;5065771;28;20083;-58
2022/05/08 07:18:39;;;;;;;17.00;15.23;;;;;;;;;;5066005;28;20092;-58
2022/05/08 07:27:53;;;;;;;16.63;14.93;;;;;;;;;;5004481;28;20106;-58
2022/05/08 07:30:32;;;;;;;;;;;;;;;;;;5026970;28;20419;-56
2022/05/08 07:33:27;;;;;;;;;;;;;;;;;;;;;
2022/05/08 07:36:19;;;;;;;18.52;14.95;;;;;;;;;;5036906;28;20061;-57
2022/05/08 07:39:08;;;;;;;15.38;13.80;;;;;;;;;;5029603;28;20025;-57
2022/05/08 07:45:19;;;;;;;13.60;12.15;;;;;;;;;;5045096;28;20033;-57
2022/05/08 07:48:08;;;;;;;14.13;12.55;;;;;;;;;;5044369;28;20572;-58
2022/05/08 07:50:45;;;;;;;13.32;12.00;;;;;;;;;;5010517;28;20042;-56
2022/05/08 07:53:12;;;;;;;13.05;11.75;;;;;;;;;;5044411;28;20037;-57
2022/05/08 08:02:42;;;;;;;11.68;10.52;;;;;;;;;;5045396;28;20092;-57
2022/05/08 08:05:23;;;;;;;13.35;11.95;;;;;;;;;;5049416;28;20025;-58
2022/05/08 08:08:17;;;;;;;12.80;11.02;;;;;;;;;;5061017;28;20041;-58
2022/05/08 08:11:04;;;;;;;12.35;10.35;;;;;;;;;;5072972;28;20047;-58
2022/05/08 08:16:42;;;;;;;11.60;10.52;;;;;;;;;;5069851;28;20048;-58
2022/05/08 08:19:30;;;;;;;12.95;10.35;;;;;;;;;;5063550;28;20040;-58
2022/05/08 08:31:42;;;;;;;10.52;8.43;;;;;;;;;;5003175;28;20045;-58
2022/05/08 08:34:09;;;;;;;9.48;8.48;;;;;;;;;;5019766;28;20026;-58
2022/05/08 08:36:36;;;;;;;10.48;9.40;;;;;;;;;;5040970;28;20037;-58
2022/05/08 08:39:14;;;;;;;10.40;9.10;;;;;;;;;;5060586;28;20060;-58
2022/05/08 08:41:55;;;;;;;10.85;9.75;;;;;;;;;;5080313;28;20374;-58
2022/05/08 08:47:45;;;;;;;12.98;9.18;;;;;;;;;;5080306;28;20040;-58
2022/05/08 08:50:28;;;;;;;9.32;8.43;;;;;;;;;;5079925;28;20060;-58
2022/05/08 08:53:04;;;;;;;10.02;8.38;;;;;;;;;;5062953;28;20037;-60
2022/05/08 08:56:10;;;;;;;10.18;9.27;;;;;;;;;;5079391;28;20125;-59
2022/05/08 08:58:59;;;;;;;11.35;8.73;;;;;;;;;;5082380;28;20412;-59
2022/05/08 09:01:54;;;;;;;;;;;;;;;;;;;;;
2022/05/08 09:07:41;;;;;;;9.82;8.77;;;;;;;;;;5044576;28;20021;-57
2022/05/08 09:10:50;;;;;;;9.10;8.20;;;;;;;;;;5058011;28;20078;-57
2022/05/08 09:13:26;;;;;;;11.15;10.05;;;;;;;;;;5076488;28;20033;-57
2022/05/08 09:16:30;;;;;;;9.10;8.20;;;;;;;;;;5056992;28;20048;-57
2022/05/08 09:21:58;;;;;;;8.43;7.57;;;;;;;;;;5076038;28;20039;-59
2022/05/08 09:25:02;;;;;;;10.23;9.30;;;;;;;;;;5057569;28;20020;-59
2022/05/08 09:27:38;;;;;;;8.80;7.97;;;;;;;;;;5053881;28;20033;-58
2022/05/08 09:30:30;;;;;;;10.18;8.30;;;;;;;;;;5076482;28;20031;-59
2022/05/08 09:33:25;;;;;;;10.32;9.07;;;;;;;;;;5063813;28;20037;-59
2022/05/08 09:35:57;;;;;;;9.20;8.30;;;;;;;;;;5049376;28;20491;-59
2022/05/08 09:38:55;;;;;;;9.27;8.38;;;;;;;;;;5074340;28;20021;-59
2022/05/08 09:41:42;;;;;;;10.30;9.30;;;;;;;;;;5057638;28;20032;-60
2022/05/08 09:47:57;;;;;;;10.63;9.23;;;;;;;;;;5008062;28;20369;-60
2022/05/08 09:50:36;;;;;;;8.90;8.00;;;;;;;;;;5012974;28;20049;-59
2022/05/08 09:53:13;;;;;;;11.10;8.43;;;;;;;;;;4992162;28;20113;-59
2022/05/08 09:55:48;;;;;;;10.85;9.00;;;;;;;;;;4979919;28;20581;-59
2022/05/08 09:58:24;;;;;;;10.32;8.70;;;;;;;;;;4981624;28;20118;-59
2022/05/08 10:01:09;;;;;;;10.27;9.20;;;;;;;;;;4997164;28;20030;-59
2022/05/08 10:03:48;;;;;;;11.32;8.68;;;;;;;;;;5015906;28;20033;-59
2022/05/08 10:06:36;;;;;;;9.57;8.50;;;;;;;;;;5057580;28;20383;-59
2022/05/08 10:21:42;;;;;;;9.10;8.20;;;;;;;;;;5013221;28;20054;-59
2022/05/08 10:30:29;;;;;;;10.48;6.70;;;;;;;;;;4999010;28;20850;-59
2022/05/08 10:33:14;;;;;;;7.40;6.70;;;;;;;;;;5012373;28;20452;-59
2022/05/08 10:36:09;;;;;;;7.57;6.78;;;;;;;;;;5013022;28;20022;-59
2022/05/08 10:38:47;;;;;;;6.57;5.72;;;;;;;;;;5012450;28;20033;-59
2022/05/08 10:41:53;;;;;;;6.63;5.97;;;;;;;;;;5012371;28;20462;-59
2022/05/08 10:44:43;;;;;;;5.63;5.03;;;;;;;;;;5013934;28;20044;-59
2022/05/08 10:53:58;;;;;;;5.63;4.68;;;;;;;;;;4995514;28;20117;-59
2022/05/08 10:56:46;;;;;;;10.43;5.07;;;;;;;;;;4993868;28;20042;-60
2022/05/08 10:59:25;;;;;;;6.28;4.78;;;;;;;;;;5015147;28;20507;-59
2022/05/08 11:02:06;;;;;;;5.63;4.68;;;;;;;;;;5033688;28;20542;-59
2022/05/08 11:07:59;;;;;;;5.22;4.55;;;;;;;;;;5074161;28;20086;-59
2022/05/08 11:11:03;;;;;;;5.72;4.97;;;;;;;;;;5073937;28;20470;-59
2022/05/08 11:13:59;;;;;;;5.65;4.28;;;;;;;;;;5011925;28;20073;-59
2022/05/08 11:16:41;;;;;;;5.97;4.75;;;;;;;;;;5006489;28;20078;-59
2022/05/08 11:19:29;;;;;;;6.03;3.72;;;;;;;;;;5074652;28;20344;-59
2022/05/08 11:22:14;;;;;;;6.20;4.07;;;;;;;;;;5055992;28;20039;-59
2022/05/08 11:24:45;;;;;;;5.95;4.78;;;;;;;;;;5073781;28;20062;-59
2022/05/08 11:30:06;;;;;;;5.13;4.63;;;;;;;;;;5041747;28;20475;-59
2022/05/08 11:36:07;;;;;;;8.40;5.22;;;;;;;;;;5073870;28;20027;-58
2022/05/08 11:39:02;;;;;;;5.15;4.65;;;;;;;;;;5074471;28;20429;-60
2022/05/08 11:47:32;;;;;;;4.32;3.33;;;;;;;;;;5077510;28;20058;-58
2022/05/08 11:50:17;;;;;;;3.80;2.90;;;;;;;;;;5059408;28;20037;-60
2022/05/08 11:52:51;;;;;;;5.93;4.40;;;;;;;;;;5077813;28;20533;-59
2022/05/08 11:55:41;;;;;;;3.42;2.90;;;;;;;;;;5075443;28;20040;-59
2022/05/08 11:58:13;;;;;;;5.13;3.72;;;;;;;;;;5077898;28;20055;-59
2022/05/08 12:01:14;;;;;;;3.50;2.65;;;;;;;;;;5077791;28;20025;-59
2022/05/08 12:03:56;;;;;;;4.30;3.08;;;;;;;;;;5055202;28;20521;-59
2022/05/08 12:06:48;;;;;;;3.63;2.50;;;;;;;;;;5073352;28;20074;-59
2022/05/08 12:09:34;;;;;;;7.68;3.08;;;;;;;;;;5074705;28;20482;-59
2022/05/08 12:12:40;;;;;;;4.10;3.33;;;;;;;;;;5077491;28;20535;-59
2022/05/08 12:15:15;;;;;;;4.53;2.88;;;;;;;;;;5076726;28;20039;-58
2022/05/08 12:17:50;;;;;;;3.22;2.50;;;;;;;;;;5076385;28;20498;-57
2022/05/08 12:20:48;;;;;;;5.57;2.60;;;;;;;;;;5077803;28;20115;-58
2022/05/08 12:24:01;;;;;;;;;;;;;;;;;;;;;
2022/05/08 12:26:54;;;;;;;3.30;2.55;;;;;;;;;;5062237;28;20047;-60
2022/05/08 12:29:32;;;;;;;5.47;2.72;;;;;;;;;;5069378;28;20033;-58
2022/05/08 12:38:22;;;;;;;5.07;2.63;;;;;;;;;;5011708;28;20164;-58
2022/05/08 12:41:12;;;;;;;3.40;3.10;;;;;;;;;;5068542;28;20466;-59
2022/05/08 12:44:13;;;;;;;5.88;3.08;;;;;;;;;;5058237;28;20470;-59
2022/05/08 12:46:58;;;;;;;4.70;3.40;;;;;;;;;;5058270;28;20478;-60
2022/05/08 12:49:53;;;;;;;6.05;3.30;;;;;;;;;;5075285;28;20077;-60
2022/05/08 12:52:28;;;;;;;4.65;3.58;;;;;;;;;;5057938;28;20053;-59
2022/05/08 13:01:20;;;;;;;5.55;3.00;;;;;;;;;;5071911;28;20031;-58
2022/05/08 13:03:49;;;;;;;;;;;;;;;;;;5074179;28;20390;-58
2022/05/08 13:09:09;;;;;;;4.13;3.42;;;;;;;;;;5076569;28;20031;-58
2022/05/08 13:11:58;;;;;;;4.80;3.35;;;;;;;;;;5076036;28;20108;-58
2022/05/08 13:17:52;;;;;;;4.13;3.60;;;;;;;;;;5073132;28;20115;-59
2022/05/08 13:20:21;;;;;;;4.07;3.22;;;;;;;;;;5074247;28;20104;-58
2022/05/08 13:23:11;;;;;;;4.90;3.95;;;;;;;;;;5074669;28;20047;-59
2022/05/08 13:29:08;;;;;;;6.38;3.92;;;;;;;;;;5043907;28;20036;-58
2022/05/08 13:31:51;;;;;;;4.65;3.03;;;;;;;;;;5019134;28;20034;-59
2022/05/08 13:34:38;;;;;;;4.93;3.47;;;;;;;;;;5017010;28;20411;-58
2022/05/08 13:40:50;;;;;;;4.28;3.13;;;;;;;;;;5010270;28;20033;-58
2022/05/08 13:43:31;;;;;;;4.55;3.22;;;;;;;;;;4955115;29;20035;-59
2022/05/08 13:46:09;;;;;;;4.80;3.30;;;;;;;;;;4955373;29;20610;-59
2022/05/08 13:48:56;;;;;;;3.25;2.95;;;;;;;;;;4956211;29;20497;-59
2022/05/08 13:51:31;;;;;;;3.70;3.15;;;;;;;;;;4936248;28;20526;-59
2022/05/08 13:54:07;;;;;;;3.92;3.53;;;;;;;;;;4962760;28;20489;-59
2022/05/08 13:56:59;;;;;;;5.00;3.38;;;;;;;;;;4996925;28;20076;-59
2022/05/08 14:02:49;;;;;;;4.93;3.22;;;;;;;;;;5019993;28;20126;-59
2022/05/08 14:05:21;;;;;;;4.32;3.53;;;;;;;;;;5047189;28;20036;-58
2022/05/08 14:08:18;;;;;;;4.72;3.92;;;;;;;;;;5037888;28;20028;-59
2022/05/08 14:11:59;;;;;;;8.55;3.20;;;;;;;;;;5054902;28;20029;-59
2022/05/08 14:14:26;;;;;;;3.83;3.42;;;;;;;;;;5035843;28;20386;-59
2022/05/08 14:20:08;;;;;;;;;;;;;;;;;;;;;
2022/05/08 14:22:45;;;;;;;5.20;3.83;;;;;;;;;;5054810;28;20071;-59
2022/05/08 14:25:26;;;;;;;4.03;3.13;;;;;;;;;;5055713;28;20017;-59
2022/05/08 14:28:02;;;;;;;4.50;3.15;;;;;;;;;;5028510;28;20060;-59
2022/05/08 14:36:49;;;;;;;;;;;;;;;;;;;;;
2022/05/08 14:39:15;;;;;;;4.75;2.85;;;;;;;;;;5001230;28;20112;-59
2022/05/08 14:42:06;;;;;;;5.32;3.42;;;;;;;;;;5029266;28;20529;-59
2022/05/08 14:45:03;;;;;;;5.43;3.75;;;;;;;;;;5032778;28;20025;-58
2022/05/08 14:47:50;;;;;;;3.53;2.88;;;;;;;;;;5033356;28;20029;-58
2022/05/08 14:50:33;;;;;;;4.63;3.67;;;;;;;;;;5036718;28;20499;-58
2022/05/08 14:56:33;;;;;;;4.15;3.38;;;;;;;;;;5021256;28;20395;-58
2022/05/08 14:59:14;;;;;;;4.47;3.08;;;;;;;;;;5026833;28;20064;-58
2022/05/08 15:01:46;;;;;;;3.75;3.35;;;;;;;;;;5051241;28;20037;-59
2022/05/08 15:04:50;;;;;;;3.75;3.35;;;;;;;;;;5032166;28;20029;-59
2022/05/08 15:07:33;;;;;;;8.23;3.30;;;;;;;;;;5035800;28;20036;-59
2022/05/08 15:10:21;;;;;;;6.10;3.28;;;;;;;;;;5052366;28;20534;-58
2022/05/08 15:12:57;;;;;;;;;;;;;;;;;;;;;
2022/05/08 15:21:51;;;;;;;5.80;2.65;;;;;;;;;;5059960;28;20028;-59
2022/05/08 15:24:22;;;;;;;4.90;3.50;;;;;;;;;;5074441;28;20446;-59
2022/05/08 15:30:21;;;;;;;5.55;2.90;;;;;;;;;;5011570;28;20037;-59
2022/05/08 15:33:28;;;;;;;;;;;;;;;;;;;;;
2022/05/08 15:36:29;;;;;;;;;;;;;;;;;;;;;
2022/05/08 15:39:20;;;;;;;4.55;3.17;;;;;;;;;;5074221;28;20105;-59
2022/05/08 15:45:01;;;;;;;3.78;3.30;;;;;;;;;;5073947;28;20032;-59
2022/05/08 15:50:39;;;;;;;4.47;3.13;;;;;;;;;;5069824;28;20484;-59
2022/05/08 15:53:12;;;;;;;5.20;3.33;;;;;;;;;;5073473;28;20307;-59
2022/05/08 15:56:22;;;;;;;4.68;3.15;;;;;;;;;;5073588;28;20497;-59
2022/05/08 16:02:37;;;;;;;3.75;3.10;;;;;;;;;;5011028;28;20125;-59
2022/05/08 16:05:11;;;;;;;7.15;3.40;;;;;;;;;;5062285;28;20058;-59
2022/05/08 16:10:54;;;;;;;4.15;3.22;;;;;;;;;;5047984;28;20060;-59
2022/05/08 16:25:27;;;;;;;;;;;;;;;;;;;;;
2022/05/08 16:28:17;;;;;;;5.70;3.30;;;;;;;;;;5072733;28;20119;-59
2022/05/08 16:31:03;;;;;;;3.90;2.72;;;;;;;;;;5050841;28;20482;-59
2022/05/08 16:33:29;;;;;;;4.75;3.45;;;;;;;;;;5060802;28;20032;-59
2022/05/08 16:35:56;;;;;;;4.05;2.88;;;;;;;;;;5077216;28;20047;-59
2022/05/08 16:38:38;;;;;;;4.68;3.65;;;;;;;;;;5059013;28;20478;-59
2022/05/08 16:47:43;;;;;;;5.45;3.53;;;;;;;;;;5072804;28;20064;-59
2022/05/08 16:50:47;;;;;;;;;;;;;;;;;;;;;
2022/05/08 17:02:56;;;;;;;6.10;3.30;;;;;;;;;;5071570;28;20039;-60
2022/05/08 17:05:28;;;;;;;5.15;3.92;;;;;;;;;;5054046;28;20122;-60
2022/05/08 17:08:10;;;;;;;5.05;3.97;;;;;;;;;;5074279;28;20036;-59
2022/05/08 17:10:52;;;;;;;5.38;3.85;;;;;;;;;;5075635;28;20215;-60
2022/05/08 17:13:30;;;;;;;6.85;4.00;;;;;;;;;;5075931;28;20081;-59
2022/05/08 17:16:09;;;;;;;4.57;3.72;;;;;;;;;;5076309;28;20029;-60
2022/05/08 17:18:42;;;;;;;3.42;2.75;;;;;;;;;;5057830;28;20031;-58
2022/05/08 17:21:08;;;;;;;4.03;3.50;;;;;;;;;;5054835;28;20040;-59
2022/05/08 17:23:44;;;;;;;4.55;3.60;;;;;;;;;;5053857;28;20107;-60
2022/05/08 17:29:48;;;;;;;4.60;4.10;;;;;;;;;;4974450;28;20053;-59
2022/05/08 17:32:35;;;;;;;4.18;3.33;;;;;;;;;;4957536;28;20521;-59
2022/05/08 17:35:48;;;;;;;;;;;;;;;;;;;;;
2022/05/08 17:45:01;;;;;;;3.28;2.97;;;;;;;;;;4994203;28;20036;-59
2022/05/08 17:47:44;;;;;;;5.13;3.60;;;;;;;;;;4989067;28;20550;-59
2022/05/08 17:50:15;;;;;;;4.55;3.85;;;;;;;;;;4977729;28;20041;-59
2022/05/08 17:56:05;;;;;;;4.93;4.38;;;;;;;;;;5055290;28;20455;-60
2022/05/08 18:07:42;;;;;;;6.63;4.00;;;;;;;;;;5055304;28;20071;-60
2022/05/08 18:13:23;;;;;;;5.35;3.65;;;;;;;;;;5046613;28;20041;-60
2022/05/08 18:16:31;;;;;;;7.65;4.00;;;;;;;;;;5037483;28;20120;-60
2022/05/08 18:28:50;;;;;;;6.07;4.70;;;;;;;;;;4986497;28;20026;-58
2022/05/08 18:37:30;;;;;;;8.98;6.30;;;;;;;;;;5013898;28;20096;-58
2022/05/08 18:43:12;;;;;;;6.78;5.72;;;;;;;;;;5013179;28;20025;-59
2022/05/08 18:52:11;;;;;;;6.80;4.47;;;;;;;;;;5004816;28;20060;-59
2022/05/08 18:57:46;;;;;;;6.63;5.40;;;;;;;;;;5013099;28;20519;-59
2022/05/08 19:00:28;;;;;;;5.80;4.40;;;;;;;;;;4993206;28;20504;-59
2022/05/08 19:03:11;;;;;;;6.80;5.57;;;;;;;;;;5002505;28;20077;-59
2022/05/08 19:17:58;;;;;;;7.05;5.20;;;;;;;;;;5049219;28;20100;-59
2022/05/08 19:21:25;;;;;;;8.40;5.65;;;;;;;;;;5067649;28;20025;-59
2022/05/08 19:23:53;;;;;;;5.07;4.55;;;;;;;;;;5065321;28;20033;-59
2022/05/08 19:26:21;;;;;;;5.93;4.80;;;;;;;;;;5055317;28;20029;-59
2022/05/08 19:29:03;;;;;;;6.45;5.28;;;;;;;;;;5074117;28;20382;-59
2022/05/08 19:46:16;;;;;;;6.57;5.40;;;;;;;;;;5074196;28;20493;-59
2022/05/08 19:52:21;;;;;;;5.25;4.00;;;;;;;;;;5039055;28;20330;-60
2022/05/08 20:00:59;;;;;;;9.45;5.05;;;;;;;;;;5066240;28;20052;-59
2022/05/08 20:03:55;;;;;;;;;;;;;;;;;;;;;
2022/05/08 20:06:40;;;;;;;5.32;3.83;;;;;;;;;;5077870;28;20404;-59
2022/05/08 20:09:33;;;;;;;4.68;4.20;;;;;;;;;;5077942;28;20029;-59
2022/05/08 20:15:13;;;;;;;7.13;4.70;;;;;;;;;;5076958;28;20086;-59
2022/05/08 20:17:59;;;;;;;4.95;4.43;;;;;;;;;;5076424;28;20033;-59
2022/05/08 20:23:44;;;;;;;4.07;3.65;;;;;;;;;;5077555;28;20042;-60
2022/05/08 20:29:32;;;;;;;6.00;4.55;;;;;;;;;;5077337;28;20040;-59
2022/05/08 20:32:14;;;;;;;5.00;4.38;;;;;;;;;;5058993;28;20039;-59
2022/05/08 20:41:44;;;;;;;7.10;4.35;;;;;;;;;;5059982;28;20367;-59
2022/05/08 20:45:24;;;;;;;;;;;;;;;;;;;;;
2022/05/08 20:47:15;;;;;;;5.72;4.63;;;;;;;;;;5061452;28;20028;-59
2022/05/08 20:50:11;;;;;;;6.20;5.07;;;;;;;;;;5077641;28;20088;-59
2022/05/08 20:52:48;;;;;;;4.78;4.10;;;;;;;;;;5074828;28;20068;-59
2022/05/08 20:58:44;;;;;;;7.30;5.18;;;;;;;;;;5022175;28;20117;-59
2022/05/08 21:01:25;;;;;;;;;;;;;;;;;;;;;
2022/05/08 21:04:15;;;;;;;6.38;5.70;;;;;;;;;;5037874;28;20454;-59
2022/05/08 21:10:05;;;;;;;8.07;6.40;;;;;;;;;;5089023;28;20078;-59
2022/05/08 21:13:04;;;;;;;6.22;5.63;;;;;;;;;;5067887;28;20025;-59
2022/05/08 21:15:50;;;;;;;7.57;6.40;;;;;;;;;;5086535;28;20084;-59
2022/05/08 21:21:47;;;;;;;8.95;6.72;;;;;;;;;;5073607;28;20046;-59
2022/05/08 21:24:24;;;;;;;6.53;5.93;;;;;;;;;;5088572;28;20091;-59
2022/05/08 21:30:13;;;;;;;6.55;5.65;;;;;;;;;;5064436;28;20021;-59
2022/05/08 21:39:07;;;;;;;5.87;5.27;;;;;;;;;;5024283;28;20455;-59
2022/05/08 21:41:44;;;;;;;6.68;5.82;;;;;;;;;;5026489;28;20025;-59
2022/05/08 21:47:30;;;;;;;6.32;5.72;;;;;;;;;;5026049;28;20060;-59
2022/05/08 21:49:58;;;;;;;6.82;5.82;;;;;;;;;;5025834;28;20060;-59
2022/05/08 21:52:36;;;;;;;6.05;5.45;;;;;;;;;;5025684;28;20095;-58
2022/05/08 22:04:00;;;;;;;5.35;4.85;;;;;;;;;;4991468;28;20027;-59
2022/05/08 22:07:01;;;;;;;7.40;4.95;;;;;;;;;;5025947;28;20072;-59
2022/05/08 22:09:40;;;;;;;9.70;5.50;;;;;;;;;;5026428;28;20030;-58
2022/05/08 22:12:21;;;;;;;4.85;4.35;;;;;;;;;;5057906;28;20036;-59
2022/05/08 22:17:54;;;;;;;8.02;5.65;;;;;;;;;;5088506;28;20035;-59
2022/05/08 22:23:39;;;;;;;6.00;4.55;;;;;;;;;;5086591;28;20044;-59
2022/05/08 22:26:20;;;;;;;4.88;4.38;;;;;;;;;;5079939;28;20052;-59
2022/05/08 22:29:43;;;;;;;7.93;4.90;;;;;;;;;;5088184;28;20036;-59
2022/05/08 22:32:32;;;;;;;6.35;4.93;;;;;;;;;;5082737;28;20058;-59
2022/05/08 22:35:27;;;;;;;6.97;5.43;;;;;;;;;;5082926;28;20123;-59
2022/05/08 22:38:34;;;;;;;5.95;5.35;;;;;;;;;;5088123;28;20029;-59
2022/05/08 22:41:09;;;;;;;6.88;5.57;;;;;;;;;;5088191;28;20031;-59
2022/05/08 22:44:13;;;;;;;7.55;4.80;;;;;;;;;;5074038;28;20045;-59
2022/05/08 22:50:01;;;;;;;6.95;6.15;;;;;;;;;;5040799;28;20040;-59
2022/05/08 22:52:45;;;;;;;8.07;5.68;;;;;;;;;;5038562;28;20486;-59
2022/05/08 22:58:21;;;;;;;;;;;;;;;;;;4970892;28;20038;-58
2022/05/08 23:01:10;;;;;;;6.53;5.80;;;;;;;;;;5025204;28;19905;-58
2022/05/08 23:03:56;;;;;;;6.85;5.85;;;;;;;;;;5008288;28;20046;-58
2022/05/08 23:09:55;;;;;;;5.97;5.38;;;;;;;;;;4948235;29;20031;-58
2022/05/08 23:13:03;;;;;;;10.65;6.10;;;;;;;;;;4926722;29;20050;-58
2022/05/08 23:15:53;;;;;;;8.35;6.68;;;;;;;;;;4938932;29;20048;-58
2022/05/08 23:18:45;;;;;;;8.38;6.03;;;;;;;;;;4952737;28;20122;-59
2022/05/08 23:21:36;;;;;;;10.57;6.03;;;;;;;;;;5047800;28;20082;-58
2022/05/08 23:27:33;;;;;;;7.78;6.47;;;;;;;;;;5067020;28;20071;-58
2022/05/08 23:36:20;;;;;;;8.27;7.50;;;;;;;;;;5071025;28;20040;-58
2022/05/08 23:45:12;;;;;;;8.48;7.18;;;;;;;;;;5057802;28;20105;-58
2022/05/08 23:47:58;;;;;;;7.82;6.80;;;;;;;;;;5052696;28;20082;-58
2022/05/08 23:54:00;;;;;;;;;;;;;;;;;;;;;
2022/05/08 23:56:51;;;;;;;7.75;6.50;;;;;;;;;;5090912;28;20063;-58
2022/05/08 23:59:37;;;;;;;;;;;;;;;;;;;;;
